sensor_id;sensor_type;location;lat;lon;timestamp;P1;durP1;ratioP1;P2;durP2;ratioP2
24173;SDS011;12324;48.146;11.502;2023-04-24T00:01:24;3.53;;;1.52;;
24173;SDS011;12324;48.146;11.502;2023-04-24T00:03:51;3.47;;;1.98;;
24173;SDS011;12324;48.146;11.502;2023-04-24T00:06:18;4.40;;;2.22;;
24173;SDS011;12324;48.146;11.502;2023-04-24T00:08:46;3.25;;;1.73;;
24173;SDS011;12324;48.146;11.502;2023-04-24T00:11:13;2.70;;;1.63;;
24173;SDS011;12324;48.146;11.502;2023-04-24T00:13:40;2.83;;;1.60;;
24173;SDS011;12324;48.146;11.502;2023-04-24T00:16:07;2.70;;;1.90;;
24173;SDS011;12324;48.146;11.502;2023-04-24T00:18:34;2.67;;;1.65;;
24173;SDS011;12324;48.146;11.502;2023-04-24T00:21:01;2.10;;;1.67;;
24173;SDS011;12324;48.146;11.502;2023-04-24T00:23:28;5.05;;;2.10;;
24173;SDS011;12324;48.146;11.502;2023-04-24T00:25:55;3.58;;;1.90;;
24173;SDS011;12324;48.146;11.502;2023-04-24T00:28:23;3.05;;;1.65;;
24173;SDS011;12324;48.146;11.502;2023-04-24T00:30:51;2.50;;;1.30;;
24173;SDS011;12324;48.146;11.502;2023-04-24T00:33:18;3.08;;;1.52;;
24173;SDS011;12324;48.146;11.502;2023-04-24T00:35:46;1.95;;;1.48;;
24173;SDS011;12324;48.146;11.502;2023-04-24T00:38:13;1.88;;;1.38;;
24173;SDS011;12324;48.146;11.502;2023-04-24T00:40:40;3.88;;;1.70;;
24173;SDS011;12324;48.146;11.502;2023-04-24T00:43:07;6.78;;;1.65;;
24173;SDS011;12324;48.146;11.502;2023-04-24T00:45:35;3.53;;;1.50;;
24173;SDS011;12324;48.146;11.502;2023-04-24T00:48:02;1.52;;;1.10;;
24173;SDS011;12324;48.146;11.502;2023-04-24T00:50:30;1.98;;;1.40;;
24173;SDS011;12324;48.146;11.502;2023-04-24T00:52:57;4.10;;;1.50;;
24173;SDS011;12324;48.146;11.502;2023-04-24T00:55:24;2.65;;;1.40;;
24173;SDS011;12324;48.146;11.502;2023-04-24T00:57:52;2.25;;;1.58;;
24173;SDS011;12324;48.146;11.502;2023-04-24T01:00:19;4.70;;;1.20;;
24173;SDS011;12324;48.146;11.502;2023-04-24T01:02:46;3.65;;;1.40;;
24173;SDS011;12324;48.146;11.502;2023-04-24T01:05:14;3.28;;;1.30;;
24173;SDS011;12324;48.146;11.502;2023-04-24T01:07:41;3.65;;;1.45;;
24173;SDS011;12324;48.146;11.502;2023-04-24T01:10:11;1.35;;;1.20;;
24173;SDS011;12324;48.146;11.502;2023-04-24T01:12:40;1.42;;;0.98;;
24173;SDS011;12324;48.146;11.502;2023-04-24T01:15:07;2.10;;;1.30;;
24173;SDS011;12324;48.146;11.502;2023-04-24T01:17:34;1.80;;;1.20;;
24173;SDS011;12324;48.146;11.502;2023-04-24T01:20:02;2.70;;;1.13;;
24173;SDS011;12324;48.146;11.502;2023-04-24T01:22:33;1.70;;;1.23;;
24173;SDS011;12324;48.146;11.502;2023-04-24T01:25:00;2.40;;;1.27;;
24173;SDS011;12324;48.146;11.502;2023-04-24T01:27:28;1.50;;;0.95;;
24173;SDS011;12324;48.146;11.502;2023-04-24T01:29:55;1.42;;;1.15;;
24173;SDS011;12324;48.146;11.502;2023-04-24T01:32:22;1.85;;;1.40;;
24173;SDS011;12324;48.146;11.502;2023-04-24T01:34:51;1.05;;;1.00;;
24173;SDS011;12324;48.146;11.502;2023-04-24T01:37:18;5.07;;;1.55;;
24173;SDS011;12324;48.146;11.502;2023-04-24T01:39:46;3.33;;;1.10;;
24173;SDS011;12324;48.146;11.502;2023-04-24T01:42:14;3.45;;;1.15;;
24173;SDS011;12324;48.146;11.502;2023-04-24T01:44:41;1.15;;;1.00;;
24173;SDS011;12324;48.146;11.502;2023-04-24T01:47:09;1.48;;;0.95;;
24173;SDS011;12324;48.146;11.502;2023-04-24T01:49:37;2.30;;;1.02;;
24173;SDS011;12324;48.146;11.502;2023-04-24T01:52:04;1.67;;;1.10;;
24173;SDS011;12324;48.146;11.502;2023-04-24T01:54:31;1.98;;;0.98;;
24173;SDS011;12324;48.146;11.502;2023-04-24T01:56:59;0.95;;;0.90;;
24173;SDS011;12324;48.146;11.502;2023-04-24T01:59:28;2.15;;;1.13;;
24173;SDS011;12324;48.146;11.502;2023-04-24T02:01:55;3.03;;;1.15;;
24173;SDS011;12324;48.146;11.502;2023-04-24T02:04:22;1.40;;;1.10;;
24173;SDS011;12324;48.146;11.502;2023-04-24T02:06:50;3.35;;;1.00;;
24173;SDS011;12324;48.146;11.502;2023-04-24T02:09:17;2.58;;;1.05;;
24173;SDS011;12324;48.146;11.502;2023-04-24T02:11:44;4.93;;;1.00;;
24173;SDS011;12324;48.146;11.502;2023-04-24T02:14:11;2.25;;;1.05;;
24173;SDS011;12324;48.146;11.502;2023-04-24T02:16:38;2.70;;;1.20;;
24173;SDS011;12324;48.146;11.502;2023-04-24T02:19:05;1.70;;;1.02;;
24173;SDS011;12324;48.146;11.502;2023-04-24T02:21:32;1.50;;;0.93;;
24173;SDS011;12324;48.146;11.502;2023-04-24T02:23:59;3.70;;;1.45;;
24173;SDS011;12324;48.146;11.502;2023-04-24T02:26:27;1.77;;;1.13;;
24173;SDS011;12324;48.146;11.502;2023-04-24T02:28:54;4.40;;;1.00;;
24173;SDS011;12324;48.146;11.502;2023-04-24T02:31:21;1.35;;;1.10;;
24173;SDS011;12324;48.146;11.502;2023-04-24T02:33:48;2.75;;;0.95;;
24173;SDS011;12324;48.146;11.502;2023-04-24T02:36:15;1.55;;;1.30;;
24173;SDS011;12324;48.146;11.502;2023-04-24T02:38:42;3.38;;;1.33;;
24173;SDS011;12324;48.146;11.502;2023-04-24T02:41:09;2.28;;;1.30;;
24173;SDS011;12324;48.146;11.502;2023-04-24T02:43:36;2.25;;;1.05;;
24173;SDS011;12324;48.146;11.502;2023-04-24T02:46:03;0.95;;;0.80;;
24173;SDS011;12324;48.146;11.502;2023-04-24T02:48:31;4.30;;;1.10;;
24173;SDS011;12324;48.146;11.502;2023-04-24T02:50:58;1.38;;;1.00;;
24173;SDS011;12324;48.146;11.502;2023-04-24T02:53:25;1.52;;;1.00;;
24173;SDS011;12324;48.146;11.502;2023-04-24T02:55:52;1.20;;;1.08;;
24173;SDS011;12324;48.146;11.502;2023-04-24T02:58:20;2.47;;;1.10;;
24173;SDS011;12324;48.146;11.502;2023-04-24T03:00:52;1.85;;;1.45;;
24173;SDS011;12324;48.146;11.502;2023-04-24T03:03:21;1.67;;;1.23;;
24173;SDS011;12324;48.146;11.502;2023-04-24T03:05:49;2.22;;;1.00;;
24173;SDS011;12324;48.146;11.502;2023-04-24T03:08:16;2.63;;;1.52;;
24173;SDS011;12324;48.146;11.502;2023-04-24T03:10:43;1.63;;;1.20;;
24173;SDS011;12324;48.146;11.502;2023-04-24T03:13:13;1.52;;;1.23;;
24173;SDS011;12324;48.146;11.502;2023-04-24T03:15:42;1.85;;;1.10;;
24173;SDS011;12324;48.146;11.502;2023-04-24T03:18:10;1.60;;;1.20;;
24173;SDS011;12324;48.146;11.502;2023-04-24T03:20:37;3.25;;;1.05;;
24173;SDS011;12324;48.146;11.502;2023-04-24T03:23:05;4.45;;;1.48;;
24173;SDS011;12324;48.146;11.502;2023-04-24T03:25:32;4.78;;;1.40;;
24173;SDS011;12324;48.146;11.502;2023-04-24T03:27:59;1.40;;;1.30;;
24173;SDS011;12324;48.146;11.502;2023-04-24T03:30:26;3.25;;;1.40;;
24173;SDS011;12324;48.146;11.502;2023-04-24T03:32:53;5.25;;;1.40;;
24173;SDS011;12324;48.146;11.502;2023-04-24T03:35:21;2.10;;;1.20;;
24173;SDS011;12324;48.146;11.502;2023-04-24T03:37:48;3.13;;;1.30;;
24173;SDS011;12324;48.146;11.502;2023-04-24T03:40:15;3.17;;;1.65;;
24173;SDS011;12324;48.146;11.502;2023-04-24T03:42:42;4.93;;;1.38;;
24173;SDS011;12324;48.146;11.502;2023-04-24T03:45:09;3.15;;;1.50;;
24173;SDS011;12324;48.146;11.502;2023-04-24T03:47:37;6.63;;;1.50;;
24173;SDS011;12324;48.146;11.502;2023-04-24T03:50:05;2.05;;;1.30;;
24173;SDS011;12324;48.146;11.502;2023-04-24T03:52:32;3.15;;;1.38;;
24173;SDS011;12324;48.146;11.502;2023-04-24T03:55:01;7.30;;;2.00;;
24173;SDS011;12324;48.146;11.502;2023-04-24T03:57:28;2.75;;;1.25;;
24173;SDS011;12324;48.146;11.502;2023-04-24T03:59:56;2.13;;;1.38;;
24173;SDS011;12324;48.146;11.502;2023-04-24T04:02:23;3.47;;;1.60;;
24173;SDS011;12324;48.146;11.502;2023-04-24T04:04:50;4.85;;;1.95;;
24173;SDS011;12324;48.146;11.502;2023-04-24T04:07:17;2.78;;;1.40;;
24173;SDS011;12324;48.146;11.502;2023-04-24T04:09:44;1.20;;;1.10;;
24173;SDS011;12324;48.146;11.502;2023-04-24T04:12:11;2.33;;;1.40;;
24173;SDS011;12324;48.146;11.502;2023-04-24T04:14:38;1.42;;;1.33;;
24173;SDS011;12324;48.146;11.502;2023-04-24T04:17:06;2.80;;;1.58;;
24173;SDS011;12324;48.146;11.502;2023-04-24T04:19:33;2.00;;;1.33;;
24173;SDS011;12324;48.146;11.502;2023-04-24T04:22:00;1.60;;;1.13;;
24173;SDS011;12324;48.146;11.502;2023-04-24T04:24:27;6.78;;;1.80;;
24173;SDS011;12324;48.146;11.502;2023-04-24T04:26:54;3.00;;;1.60;;
24173;SDS011;12324;48.146;11.502;2023-04-24T04:29:24;4.22;;;1.88;;
24173;SDS011;12324;48.146;11.502;2023-04-24T04:31:52;4.63;;;1.42;;
24173;SDS011;12324;48.146;11.502;2023-04-24T04:34:19;5.00;;;1.38;;
24173;SDS011;12324;48.146;11.502;2023-04-24T04:36:46;5.43;;;1.67;;
24173;SDS011;12324;48.146;11.502;2023-04-24T04:39:13;4.40;;;1.35;;
24173;SDS011;12324;48.146;11.502;2023-04-24T04:41:41;3.65;;;1.05;;
24173;SDS011;12324;48.146;11.502;2023-04-24T04:44:08;5.10;;;1.70;;
24173;SDS011;12324;48.146;11.502;2023-04-24T04:46:36;5.45;;;1.95;;
24173;SDS011;12324;48.146;11.502;2023-04-24T04:49:03;5.22;;;1.60;;
24173;SDS011;12324;48.146;11.502;2023-04-24T04:51:30;7.60;;;1.98;;
24173;SDS011;12324;48.146;11.502;2023-04-24T04:53:57;4.03;;;1.63;;
24173;SDS011;12324;48.146;11.502;2023-04-24T04:56:25;4.60;;;1.85;;
24173;SDS011;12324;48.146;11.502;2023-04-24T04:58:52;6.93;;;2.28;;
24173;SDS011;12324;48.146;11.502;2023-04-24T05:01:19;6.72;;;1.90;;
24173;SDS011;12324;48.146;11.502;2023-04-24T05:03:49;3.72;;;1.33;;
24173;SDS011;12324;48.146;11.502;2023-04-24T05:06:16;7.43;;;1.80;;
24173;SDS011;12324;48.146;11.502;2023-04-24T05:08:43;4.85;;;1.55;;
24173;SDS011;12324;48.146;11.502;2023-04-24T05:11:10;6.53;;;1.45;;
24173;SDS011;12324;48.146;11.502;2023-04-24T05:13:38;3.42;;;1.38;;
24173;SDS011;12324;48.146;11.502;2023-04-24T05:16:06;2.67;;;1.48;;
24173;SDS011;12324;48.146;11.502;2023-04-24T05:18:33;3.47;;;1.20;;
24173;SDS011;12324;48.146;11.502;2023-04-24T05:21:00;2.92;;;1.00;;
24173;SDS011;12324;48.146;11.502;2023-04-24T05:23:28;3.05;;;1.10;;
24173;SDS011;12324;48.146;11.502;2023-04-24T05:25:55;2.08;;;1.15;;
24173;SDS011;12324;48.146;11.502;2023-04-24T05:28:22;1.35;;;0.98;;
24173;SDS011;12324;48.146;11.502;2023-04-24T05:30:49;1.40;;;0.90;;
24173;SDS011;12324;48.146;11.502;2023-04-24T05:33:16;1.25;;;0.95;;
24173;SDS011;12324;48.146;11.502;2023-04-24T05:35:43;1.90;;;1.10;;
24173;SDS011;12324;48.146;11.502;2023-04-24T05:38:12;2.13;;;0.90;;
24173;SDS011;12324;48.146;11.502;2023-04-24T05:40:39;2.22;;;1.30;;
24173;SDS011;12324;48.146;11.502;2023-04-24T05:43:07;1.95;;;1.13;;
24173;SDS011;12324;48.146;11.502;2023-04-24T05:45:34;1.50;;;0.88;;
24173;SDS011;12324;48.146;11.502;2023-04-24T05:48:02;2.58;;;1.10;;
24173;SDS011;12324;48.146;11.502;2023-04-24T05:50:29;1.10;;;0.95;;
24173;SDS011;12324;48.146;11.502;2023-04-24T05:52:56;1.50;;;0.93;;
24173;SDS011;12324;48.146;11.502;2023-04-24T05:55:28;1.63;;;0.90;;
24173;SDS011;12324;48.146;11.502;2023-04-24T05:57:55;1.52;;;0.90;;
24173;SDS011;12324;48.146;11.502;2023-04-24T06:00:23;2.78;;;1.55;;
24173;SDS011;12324;48.146;11.502;2023-04-24T06:02:50;1.95;;;1.30;;
24173;SDS011;12324;48.146;11.502;2023-04-24T06:05:19;2.17;;;1.02;;
24173;SDS011;12324;48.146;11.502;2023-04-24T06:07:46;0.75;;;0.75;;
24173;SDS011;12324;48.146;11.502;2023-04-24T06:10:14;1.25;;;1.00;;
24173;SDS011;12324;48.146;11.502;2023-04-24T06:12:41;2.35;;;0.90;;
24173;SDS011;12324;48.146;11.502;2023-04-24T06:15:08;1.65;;;0.80;;
24173;SDS011;12324;48.146;11.502;2023-04-24T06:17:36;1.48;;;0.75;;
24173;SDS011;12324;48.146;11.502;2023-04-24T06:20:03;1.42;;;0.82;;
24173;SDS011;12324;48.146;11.502;2023-04-24T06:22:31;1.23;;;0.90;;
24173;SDS011;12324;48.146;11.502;2023-04-24T06:25:00;1.85;;;0.70;;
24173;SDS011;12324;48.146;11.502;2023-04-24T06:27:27;1.83;;;0.80;;
24173;SDS011;12324;48.146;11.502;2023-04-24T06:29:54;4.03;;;0.98;;
24173;SDS011;12324;48.146;11.502;2023-04-24T06:32:22;1.55;;;0.80;;
24173;SDS011;12324;48.146;11.502;2023-04-24T06:34:53;3.22;;;0.80;;
24173;SDS011;12324;48.146;11.502;2023-04-24T06:37:20;0.73;;;0.70;;
24173;SDS011;12324;48.146;11.502;2023-04-24T06:39:47;1.95;;;1.02;;
24173;SDS011;12324;48.146;11.502;2023-04-24T06:42:14;1.25;;;0.77;;
24173;SDS011;12324;48.146;11.502;2023-04-24T06:44:41;2.75;;;0.88;;
24173;SDS011;12324;48.146;11.502;2023-04-24T06:47:11;1.05;;;0.90;;
24173;SDS011;12324;48.146;11.502;2023-04-24T06:49:39;1.45;;;0.65;;
24173;SDS011;12324;48.146;11.502;2023-04-24T06:52:07;1.08;;;0.82;;
24173;SDS011;12324;48.146;11.502;2023-04-24T06:54:34;1.17;;;0.90;;
24173;SDS011;12324;48.146;11.502;2023-04-24T06:57:01;0.98;;;0.88;;
24173;SDS011;12324;48.146;11.502;2023-04-24T06:59:29;2.50;;;0.77;;
24173;SDS011;12324;48.146;11.502;2023-04-24T07:01:56;2.40;;;0.95;;
24173;SDS011;12324;48.146;11.502;2023-04-24T07:04:24;2.22;;;0.80;;
24173;SDS011;12324;48.146;11.502;2023-04-24T07:06:52;0.82;;;0.82;;
24173;SDS011;12324;48.146;11.502;2023-04-24T07:09:21;3.65;;;1.05;;
24173;SDS011;12324;48.146;11.502;2023-04-24T07:11:49;2.70;;;1.02;;
24173;SDS011;12324;48.146;11.502;2023-04-24T07:14:17;2.78;;;1.00;;
24173;SDS011;12324;48.146;11.502;2023-04-24T07:16:44;1.40;;;0.90;;
24173;SDS011;12324;48.146;11.502;2023-04-24T07:19:12;0.60;;;0.60;;
24173;SDS011;12324;48.146;11.502;2023-04-24T07:21:39;1.65;;;0.80;;
24173;SDS011;12324;48.146;11.502;2023-04-24T07:24:07;0.73;;;0.73;;
24173;SDS011;12324;48.146;11.502;2023-04-24T07:26:37;0.98;;;0.70;;
24173;SDS011;12324;48.146;11.502;2023-04-24T07:29:05;0.60;;;0.60;;
24173;SDS011;12324;48.146;11.502;2023-04-24T07:31:32;1.08;;;0.70;;
24173;SDS011;12324;48.146;11.502;2023-04-24T07:33:59;1.27;;;0.60;;
24173;SDS011;12324;48.146;11.502;2023-04-24T07:36:26;1.58;;;1.13;;
24173;SDS011;12324;48.146;11.502;2023-04-24T07:38:54;0.90;;;0.80;;
24173;SDS011;12324;48.146;11.502;2023-04-24T07:41:22;0.80;;;0.80;;
24173;SDS011;12324;48.146;11.502;2023-04-24T07:43:50;3.15;;;1.10;;
24173;SDS011;12324;48.146;11.502;2023-04-24T07:46:18;0.60;;;0.60;;
24173;SDS011;12324;48.146;11.502;2023-04-24T07:48:46;1.63;;;0.90;;
24173;SDS011;12324;48.146;11.502;2023-04-24T07:51:27;4.93;;;0.98;;
24173;SDS011;12324;48.146;11.502;2023-04-24T07:53:54;2.13;;;1.00;;
24173;SDS011;12324;48.146;11.502;2023-04-24T07:56:21;0.90;;;0.73;;
24173;SDS011;12324;48.146;11.502;2023-04-24T07:58:48;1.95;;;0.80;;
24173;SDS011;12324;48.146;11.502;2023-04-24T08:01:15;4.32;;;1.52;;
24173;SDS011;12324;48.146;11.502;2023-04-24T08:03:42;1.08;;;0.88;;
24173;SDS011;12324;48.146;11.502;2023-04-24T08:06:10;1.13;;;0.77;;
24173;SDS011;12324;48.146;11.502;2023-04-24T08:08:37;1.77;;;0.90;;
24173;SDS011;12324;48.146;11.502;2023-04-24T08:11:04;1.45;;;0.98;;
24173;SDS011;12324;48.146;11.502;2023-04-24T08:13:32;1.70;;;1.00;;
24173;SDS011;12324;48.146;11.502;2023-04-24T08:16:01;2.22;;;0.80;;
24173;SDS011;12324;48.146;11.502;2023-04-24T08:18:28;0.98;;;0.82;;
24173;SDS011;12324;48.146;11.502;2023-04-24T08:20:55;1.42;;;0.85;;
24173;SDS011;12324;48.146;11.502;2023-04-24T08:23:27;1.67;;;0.88;;
24173;SDS011;12324;48.146;11.502;2023-04-24T08:25:55;1.75;;;1.10;;
24173;SDS011;12324;48.146;11.502;2023-04-24T08:28:23;0.73;;;0.73;;
24173;SDS011;12324;48.146;11.502;2023-04-24T08:30:51;2.47;;;0.90;;
24173;SDS011;12324;48.146;11.502;2023-04-24T08:33:22;2.78;;;1.00;;
24173;SDS011;12324;48.146;11.502;2023-04-24T08:35:49;2.97;;;1.30;;
24173;SDS011;12324;48.146;11.502;2023-04-24T08:38:16;2.83;;;1.40;;
24173;SDS011;12324;48.146;11.502;2023-04-24T08:40:43;4.28;;;1.30;;
24173;SDS011;12324;48.146;11.502;2023-04-24T08:43:12;2.03;;;1.45;;
24173;SDS011;12324;48.146;11.502;2023-04-24T08:45:40;3.00;;;1.92;;
24173;SDS011;12324;48.146;11.502;2023-04-24T08:48:07;4.88;;;1.90;;
24173;SDS011;12324;48.146;11.502;2023-04-24T08:50:52;3.47;;;1.95;;
24173;SDS011;12324;48.146;11.502;2023-04-24T08:53:20;2.00;;;1.65;;
24173;SDS011;12324;48.146;11.502;2023-04-24T08:55:47;1.58;;;1.40;;
24173;SDS011;12324;48.146;11.502;2023-04-24T08:58:16;2.15;;;1.67;;
24173;SDS011;12324;48.146;11.502;2023-04-24T09:00:43;5.05;;;1.90;;
24173;SDS011;12324;48.146;11.502;2023-04-24T09:03:13;2.75;;;1.70;;
24173;SDS011;12324;48.146;11.502;2023-04-24T09:05:43;3.10;;;1.70;;
24173;SDS011;12324;48.146;11.502;2023-04-24T09:08:12;3.38;;;1.70;;
24173;SDS011;12324;48.146;11.502;2023-04-24T09:10:40;1.80;;;1.58;;
24173;SDS011;12324;48.146;11.502;2023-04-24T09:13:07;1.55;;;1.40;;
24173;SDS011;12324;48.146;11.502;2023-04-24T09:15:36;1.90;;;1.30;;
24173;SDS011;12324;48.146;11.502;2023-04-24T09:18:04;3.60;;;1.65;;
24173;SDS011;12324;48.146;11.502;2023-04-24T09:20:31;4.97;;;1.67;;
24173;SDS011;12324;48.146;11.502;2023-04-24T09:22:59;5.75;;;2.10;;
24173;SDS011;12324;48.146;11.502;2023-04-24T09:25:33;5.07;;;1.75;;
24173;SDS011;12324;48.146;11.502;2023-04-24T09:28:02;4.13;;;1.77;;
24173;SDS011;12324;48.146;11.502;2023-04-24T09:30:30;3.78;;;1.50;;
24173;SDS011;12324;48.146;11.502;2023-04-24T09:33:10;2.53;;;1.80;;
24173;SDS011;12324;48.146;11.502;2023-04-24T09:35:41;5.75;;;2.33;;
24173;SDS011;12324;48.146;11.502;2023-04-24T09:38:14;3.60;;;1.83;;
24173;SDS011;12324;48.146;11.502;2023-04-24T09:40:41;5.20;;;1.98;;
24173;SDS011;12324;48.146;11.502;2023-04-24T09:43:10;3.08;;;1.73;;
24173;SDS011;12324;48.146;11.502;2023-04-24T09:45:38;3.40;;;2.03;;
24173;SDS011;12324;48.146;11.502;2023-04-24T09:48:08;4.78;;;1.85;;
24173;SDS011;12324;48.146;11.502;2023-04-24T09:50:36;3.75;;;1.88;;
24173;SDS011;12324;48.146;11.502;2023-04-24T09:53:04;4.10;;;2.03;;
24173;SDS011;12324;48.146;11.502;2023-04-24T09:55:38;4.97;;;2.50;;
24173;SDS011;12324;48.146;11.502;2023-04-24T09:58:07;5.47;;;1.90;;
24173;SDS011;12324;48.146;11.502;2023-04-24T10:00:34;2.95;;;2.00;;
24173;SDS011;12324;48.146;11.502;2023-04-24T10:03:03;3.72;;;1.90;;
24173;SDS011;12324;48.146;11.502;2023-04-24T10:05:34;1.73;;;1.45;;
24173;SDS011;12324;48.146;11.502;2023-04-24T10:08:03;5.28;;;1.80;;
24173;SDS011;12324;48.146;11.502;2023-04-24T10:10:30;2.25;;;1.60;;
24173;SDS011;12324;48.146;11.502;2023-04-24T10:12:58;2.83;;;1.48;;
24173;SDS011;12324;48.146;11.502;2023-04-24T10:15:26;4.75;;;1.70;;
24173;SDS011;12324;48.146;11.502;2023-04-24T10:17:54;4.75;;;1.88;;
24173;SDS011;12324;48.146;11.502;2023-04-24T10:20:22;3.65;;;1.38;;
24173;SDS011;12324;48.146;11.502;2023-04-24T10:22:50;3.17;;;1.63;;
24173;SDS011;12324;48.146;11.502;2023-04-24T10:25:21;2.88;;;1.80;;
24173;SDS011;12324;48.146;11.502;2023-04-24T10:27:49;3.47;;;1.67;;
24173;SDS011;12324;48.146;11.502;2023-04-24T10:30:17;4.00;;;1.88;;
24173;SDS011;12324;48.146;11.502;2023-04-24T10:32:45;3.22;;;1.77;;
24173;SDS011;12324;48.146;11.502;2023-04-24T10:35:12;3.38;;;1.70;;
24173;SDS011;12324;48.146;11.502;2023-04-24T10:37:44;2.08;;;1.83;;
24173;SDS011;12324;48.146;11.502;2023-04-24T10:40:18;2.35;;;1.58;;
24173;SDS011;12324;48.146;11.502;2023-04-24T10:42:51;3.00;;;1.63;;
24173;SDS011;12324;48.146;11.502;2023-04-24T10:45:24;2.88;;;1.70;;
24173;SDS011;12324;48.146;11.502;2023-04-24T10:47:58;4.20;;;1.88;;
24173;SDS011;12324;48.146;11.502;2023-04-24T10:53:20;5.22;;;1.88;;
24173;SDS011;12324;48.146;11.502;2023-04-24T10:55:50;1.17;;;1.05;;
24173;SDS011;12324;48.146;11.502;2023-04-24T10:58:23;3.83;;;1.75;;
24173;SDS011;12324;48.146;11.502;2023-04-24T11:00:57;1.80;;;1.50;;
24173;SDS011;12324;48.146;11.502;2023-04-24T11:03:27;3.03;;;1.50;;
24173;SDS011;12324;48.146;11.502;2023-04-24T11:08:23;2.40;;;1.50;;
24173;SDS011;12324;48.146;11.502;2023-04-24T11:10:57;3.05;;;1.75;;
24173;SDS011;12324;48.146;11.502;2023-04-24T11:13:25;3.88;;;1.38;;
24173;SDS011;12324;48.146;11.502;2023-04-24T11:19:04;2.28;;;1.20;;
24173;SDS011;12324;48.146;11.502;2023-04-24T11:22:17;3.28;;;1.70;;
24173;SDS011;12324;48.146;11.502;2023-04-24T11:26:50;2.92;;;1.92;;
24173;SDS011;12324;48.146;11.502;2023-04-24T11:29:19;2.88;;;1.80;;
24173;SDS011;12324;48.146;11.502;2023-04-24T11:31:48;4.32;;;1.95;;
24173;SDS011;12324;48.146;11.502;2023-04-24T11:34:20;4.20;;;2.28;;
24173;SDS011;12324;48.146;11.502;2023-04-24T11:36:48;2.88;;;1.70;;
24173;SDS011;12324;48.146;11.502;2023-04-24T11:39:15;4.78;;;1.83;;
24173;SDS011;12324;48.146;11.502;2023-04-24T11:41:42;5.70;;;1.65;;
24173;SDS011;12324;48.146;11.502;2023-04-24T11:44:09;3.97;;;1.48;;
24173;SDS011;12324;48.146;11.502;2023-04-24T11:46:37;1.60;;;1.50;;
24173;SDS011;12324;48.146;11.502;2023-04-24T11:49:06;3.65;;;1.50;;
24173;SDS011;12324;48.146;11.502;2023-04-24T11:51:33;2.03;;;1.65;;
24173;SDS011;12324;48.146;11.502;2023-04-24T11:56:46;1.83;;;1.60;;
24173;SDS011;12324;48.146;11.502;2023-04-24T11:59:13;3.15;;;1.55;;
24173;SDS011;12324;48.146;11.502;2023-04-24T12:01:46;2.42;;;1.40;;
24173;SDS011;12324;48.146;11.502;2023-04-24T12:04:15;4.50;;;1.75;;
24173;SDS011;12324;48.146;11.502;2023-04-24T12:06:59;3.00;;;1.80;;
24173;SDS011;12324;48.146;11.502;2023-04-24T12:09:27;1.50;;;1.15;;
24173;SDS011;12324;48.146;11.502;2023-04-24T12:11:54;2.65;;;1.48;;
24173;SDS011;12324;48.146;11.502;2023-04-24T12:14:24;2.33;;;1.45;;
24173;SDS011;12324;48.146;11.502;2023-04-24T12:16:51;4.05;;;1.30;;
24173;SDS011;12324;48.146;11.502;2023-04-24T12:19:20;1.63;;;1.40;;
24173;SDS011;12324;48.146;11.502;2023-04-24T12:22:00;3.10;;;1.70;;
24173;SDS011;12324;48.146;11.502;2023-04-24T12:24:28;4.60;;;1.63;;
24173;SDS011;12324;48.146;11.502;2023-04-24T12:26:55;3.28;;;1.60;;
24173;SDS011;12324;48.146;11.502;2023-04-24T12:29:23;2.80;;;1.50;;
24173;SDS011;12324;48.146;11.502;2023-04-24T12:31:50;2.80;;;1.63;;
24173;SDS011;12324;48.146;11.502;2023-04-24T12:34:22;4.35;;;1.70;;
24173;SDS011;12324;48.146;11.502;2023-04-24T12:36:50;2.95;;;1.52;;
24173;SDS011;12324;48.146;11.502;2023-04-24T12:41:54;5.70;;;1.80;;
24173;SDS011;12324;48.146;11.502;2023-04-24T12:44:32;2.42;;;1.05;;
24173;SDS011;12324;48.146;11.502;2023-04-24T12:47:00;2.30;;;1.42;;
24173;SDS011;12324;48.146;11.502;2023-04-24T12:49:29;3.70;;;1.70;;
24173;SDS011;12324;48.146;11.502;2023-04-24T12:51:56;1.95;;;1.50;;
24173;SDS011;12324;48.146;11.502;2023-04-24T12:54:23;4.03;;;1.58;;
24173;SDS011;12324;48.146;11.502;2023-04-24T12:56:51;4.03;;;1.60;;
24173;SDS011;12324;48.146;11.502;2023-04-24T12:59:17;4.18;;;1.75;;
24173;SDS011;12324;48.146;11.502;2023-04-24T13:01:44;4.03;;;1.73;;
24173;SDS011;12324;48.146;11.502;2023-04-24T13:04:11;1.92;;;1.50;;
24173;SDS011;12324;48.146;11.502;2023-04-24T13:06:38;3.75;;;1.40;;
24173;SDS011;12324;48.146;11.502;2023-04-24T13:09:04;4.38;;;1.80;;
24173;SDS011;12324;48.146;11.502;2023-04-24T13:11:31;4.03;;;1.80;;
24173;SDS011;12324;48.146;11.502;2023-04-24T13:13:57;3.67;;;2.20;;
24173;SDS011;12324;48.146;11.502;2023-04-24T13:16:24;5.50;;;1.83;;
24173;SDS011;12324;48.146;11.502;2023-04-24T13:18:51;5.07;;;2.10;;
24173;SDS011;12324;48.146;11.502;2023-04-24T13:21:18;2.97;;;1.80;;
24173;SDS011;12324;48.146;11.502;2023-04-24T13:23:44;3.30;;;1.65;;
24173;SDS011;12324;48.146;11.502;2023-04-24T13:26:11;5.13;;;2.00;;
24173;SDS011;12324;48.146;11.502;2023-04-24T13:28:38;4.60;;;2.05;;
24173;SDS011;12324;48.146;11.502;2023-04-24T13:31:04;7.28;;;2.00;;
24173;SDS011;12324;48.146;11.502;2023-04-24T13:33:32;7.70;;;1.92;;
24173;SDS011;12324;48.146;11.502;2023-04-24T13:35:59;4.97;;;1.90;;
24173;SDS011;12324;48.146;11.502;2023-04-24T13:38:25;3.13;;;1.77;;
24173;SDS011;12324;48.146;11.502;2023-04-24T13:40:52;2.72;;;1.73;;
24173;SDS011;12324;48.146;11.502;2023-04-24T13:43:19;4.65;;;2.15;;
24173;SDS011;12324;48.146;11.502;2023-04-24T13:45:45;6.80;;;2.53;;
24173;SDS011;12324;48.146;11.502;2023-04-24T13:48:12;4.68;;;2.00;;
24173;SDS011;12324;48.146;11.502;2023-04-24T13:50:41;5.97;;;1.75;;
24173;SDS011;12324;48.146;11.502;2023-04-24T13:53:08;5.28;;;1.70;;
24173;SDS011;12324;48.146;11.502;2023-04-24T13:55:35;4.80;;;1.88;;
24173;SDS011;12324;48.146;11.502;2023-04-24T13:58:02;4.50;;;1.70;;
24173;SDS011;12324;48.146;11.502;2023-04-24T14:00:29;3.15;;;1.88;;
24173;SDS011;12324;48.146;11.502;2023-04-24T14:02:56;2.00;;;1.20;;
24173;SDS011;12324;48.146;11.502;2023-04-24T14:05:23;4.55;;;1.70;;
24173;SDS011;12324;48.146;11.502;2023-04-24T14:07:50;3.47;;;1.60;;
24173;SDS011;12324;48.146;11.502;2023-04-24T14:10:17;3.90;;;1.63;;
24173;SDS011;12324;48.146;11.502;2023-04-24T14:12:43;7.63;;;2.08;;
24173;SDS011;12324;48.146;11.502;2023-04-24T14:15:10;2.13;;;1.65;;
24173;SDS011;12324;48.146;11.502;2023-04-24T14:17:39;4.03;;;1.60;;
24173;SDS011;12324;48.146;11.502;2023-04-24T14:20:06;4.30;;;1.92;;
24173;SDS011;12324;48.146;11.502;2023-04-24T14:22:33;4.22;;;1.80;;
24173;SDS011;12324;48.146;11.502;2023-04-24T14:25:00;4.07;;;1.70;;
24173;SDS011;12324;48.146;11.502;2023-04-24T14:27:27;2.65;;;1.70;;
24173;SDS011;12324;48.146;11.502;2023-04-24T14:29:54;3.13;;;1.77;;
24173;SDS011;12324;48.146;11.502;2023-04-24T14:32:21;4.85;;;1.77;;
24173;SDS011;12324;48.146;11.502;2023-04-24T14:34:48;4.47;;;1.80;;
24173;SDS011;12324;48.146;11.502;2023-04-24T14:37:16;5.13;;;1.98;;
24173;SDS011;12324;48.146;11.502;2023-04-24T14:39:43;8.80;;;1.90;;
24173;SDS011;12324;48.146;11.502;2023-04-24T14:42:21;2.78;;;1.83;;
24173;SDS011;12324;48.146;11.502;2023-04-24T14:44:48;6.35;;;2.03;;
24173;SDS011;12324;48.146;11.502;2023-04-24T14:47:15;2.75;;;1.65;;
24173;SDS011;12324;48.146;11.502;2023-04-24T14:49:48;4.10;;;1.80;;
24173;SDS011;12324;48.146;11.502;2023-04-24T14:52:15;8.38;;;2.28;;
24173;SDS011;12324;48.146;11.502;2023-04-24T14:54:42;3.65;;;1.63;;